Time;durP1;ratioP1;P1;durP2;ratioP2;P2;SDS_P1;SDS_P2;PMS_P1;PMS_P2;Temp;Humidity;BMP_temperature;BMP_pressure;BME280_temperature;BME280_humidity;BME280_pressure;Samples;Min_cycle;Max_cycle;Signal;HPM_P1;HPM_P2
2022/04/12 00:00:23;;;;;;;;;4.00;4.00;;;;;16.20;51.37;100174.22;5036138;28;45323;-72
2022/04/12 00:02:49;;;;;;;;;5.00;3.33;;;;;16.37;51.28;100208.94;5035915;28;46368;-73
2022/04/12 00:05:21;;;;;;;;;7.00;4.00;;;;;16.42;51.27;100216.72;5038067;28;45441;-72
2022/04/12 00:07:46;;;;;;;;;6.00;4.00;;;;;16.45;51.30;100220.16;5038910;28;45468;-72
2022/04/12 00:10:13;;;;;;;;;5.33;3.33;;;;;16.28;51.38;100188.09;5040329;28;45129;-71
2022/04/12 00:12:39;;;;;;;;;4.67;4.67;;;;;16.31;51.56;100214.41;5039863;28;46101;-70
2022/04/12 00:15:06;;;;;;;;;3.67;3.00;;;;;16.31;51.87;100220.56;5039694;28;45356;-73
2022/04/12 00:20:18;;;;;;;;;3.67;3.67;;;;;16.27;51.84;100228.63;5040022;28;45264;-72
2022/04/12 00:22:45;;;;;;;;;4.67;4.33;;;;;16.16;52.26;100220.13;5039716;28;46642;-72
2022/04/12 00:25:12;;;;;;;;;4.00;4.00;;;;;16.08;52.18;100200.09;5038516;28;45472;-72
2022/04/12 00:27:38;;;;;;;;;3.33;3.00;;;;;16.13;52.14;100226.38;5040130;28;45457;-69
2022/04/12 00:30:05;;;;;;;;;5.00;4.67;;;;;16.09;52.22;100228.25;5039694;28;45338;-71
2022/04/12 00:32:31;;;;;;;;;4.00;4.00;;;;;15.95;52.17;100195.22;5039084;28;46439;-71
2022/04/12 00:34:57;;;;;;;;;3.33;3.33;;;;;16.03;52.68;100224.91;5038256;28;45562;-72
2022/04/12 00:37:22;;;;;;;;;2.00;2.00;;;;;15.96;52.43;100207.50;5039837;28;45430;-70
2022/04/12 00:39:48;;;;;;;;;5.00;3.33;;;;;16.02;52.84;100223.19;5039816;28;45363;-69
2022/04/12 00:42:14;;;;;;;;;3.67;3.67;;;;;16.00;52.95;100220.59;5039667;28;46663;-72
2022/04/12 00:44:40;;;;;;;;;7.00;5.00;;;;;15.96;53.13;100228.66;5039445;28;45406;-71
2022/04/12 00:47:05;;;;;;;;;8.33;3.67;;;;;15.83;53.08;100191.16;5039637;28;45279;-69
2022/04/12 00:49:31;;;;;;;;;4.00;4.00;;;;;16.01;52.76;100209.09;5039745;28;45406;-69
2022/04/12 00:51:58;;;;;;;;;4.67;3.00;;;;;15.96;52.95;100202.22;5039600;28;45516;-69
2022/04/12 00:54:25;;;;;;;;;3.33;3.00;;;;;15.96;52.81;100197.81;5039732;28;45332;-72
2022/04/12 00:56:58;;;;;;;;;4.67;4.00;;;;;15.87;52.74;100192.78;5039308;28;45327;-69
2022/04/12 00:59:24;;;;;;;;;4.67;3.00;;;;;15.87;53.40;100198.97;5039694;28;45525;-69
2022/04/12 01:01:53;;;;;;;;;5.00;4.00;;;;;15.62;53.23;100167.06;5039349;28;46057;-69
2022/04/12 01:04:19;;;;;;;;;3.33;3.33;;;;;15.84;53.32;100209.59;5039175;28;45240;-70
2022/04/12 01:06:46;;;;;;;;;5.00;2.67;;;;;15.26;53.35;100116.16;5039065;28;45240;-69
2022/04/12 01:09:12;;;;;;;;;6.00;4.33;;;;;15.19;53.74;100123.38;5039070;28;45456;-69
2022/04/12 01:11:39;;;;;;;;;5.00;4.00;;;;;15.55;53.45;100176.06;5038856;28;45519;-69
2022/04/12 01:14:07;;;;;;;;;4.67;4.67;;;;;15.61;53.62;100180.28;5038827;28;45270;-70
2022/04/12 01:16:33;;;;;;;;;5.33;4.00;;;;;15.35;53.66;100130.84;5038355;28;45242;-69
2022/04/12 01:18:59;;;;;;;;;9.67;5.33;;;;;15.49;53.39;100152.44;5040013;28;45282;-68
2022/04/12 01:21:31;;;;;;;;;5.67;4.00;;;;;15.46;53.89;100163.97;5039785;28;45515;-70
2022/04/12 01:24:00;;;;;;;;;3.00;3.00;;;;;15.64;53.89;100201.34;5038352;28;45352;-73
2022/04/12 01:26:27;;;;;;;;;3.33;3.33;;;;;15.36;53.57;100164.28;5020727;28;45643;-72
2022/04/12 01:28:52;;;;;;;;;4.00;4.00;;;;;15.59;53.58;100206.75;5020739;28;45778;-75
2022/04/12 01:31:18;;;;;;;;;5.00;3.00;;;;;15.41;53.89;100173.78;5019349;28;46268;-73
2022/04/12 01:33:44;;;;;;;;;4.00;4.00;;;;;15.34;53.85;100164.28;5019288;28;45312;-75
2022/04/12 01:36:12;;;;;;;;;7.33;5.33;;;;;15.50;53.67;100188.50;5019363;28;45430;-75
2022/04/12 01:38:38;;;;;;;;;4.00;4.00;;;;;14.97;53.69;100109.00;5020554;28;45399;-75
2022/04/12 01:41:04;;;;;;;;;3.67;3.00;;;;;14.80;54.02;100083.94;5018526;28;46101;-73
2022/04/12 01:43:30;;;;;;;;;4.00;4.00;;;;;15.23;54.43;100167.22;5018973;28;45468;-72
2022/04/12 01:45:55;;;;;;;;;4.00;3.67;;;;;15.37;54.09;100189.72;5029678;28;45177;-72
2022/04/12 01:48:22;;;;;;;;;5.33;5.33;;;;;15.21;54.08;100173.44;5039098;28;45404;-74
2022/04/12 01:50:48;;;;;;;;;4.33;4.00;;;;;15.26;54.35;100197.94;5038680;28;46119;-74
2022/04/12 01:53:13;;;;;;;;;5.33;4.00;;;;;15.35;54.34;100216.19;5038854;28;45527;-69
2022/04/12 01:55:39;;;;;;;;;8.00;4.00;;;;;15.19;54.15;100197.22;5039321;28;45411;-70
2022/04/12 01:58:05;;;;;;;;;4.00;4.00;;;;;15.35;53.89;100212.66;5041810;28;45517;-69
2022/04/12 02:00:36;;;;;;;;;4.67;3.00;;;;;15.18;54.54;100186.72;5041774;28;45578;-74
2022/04/12 02:03:03;;;;;;;;;6.00;4.67;;;;;15.37;54.56;100210.84;5038740;28;45307;-71
2022/04/12 02:05:29;;;;;;;;;5.67;4.67;;;;;15.20;53.95;100172.56;5038849;28;45499;-73
2022/04/12 02:07:55;;;;;;;;;4.00;4.00;;;;;15.26;53.87;100184.75;5038807;28;45579;-72
2022/04/12 02:10:22;;;;;;;;;4.33;4.33;;;;;15.36;54.03;100203.84;5036836;28;45516;-73
2022/04/12 02:12:49;;;;;;;;;4.33;3.33;;;;;15.29;53.81;100194.34;5038757;28;45457;-72
2022/04/12 02:15:15;;;;;;;;;6.00;4.33;;;;;15.32;54.46;100200.41;5038344;28;45449;-74
2022/04/12 02:17:41;;;;;;;;;4.33;4.33;;;;;15.12;54.37;100181.59;5039221;28;45561;-74
2022/04/12 02:20:07;;;;;;;;;6.00;3.67;;;;;15.12;54.47;100186.88;5040906;28;45459;-73
2022/04/12 02:22:33;;;;;;;;;3.00;3.00;;;;;15.01;54.96;100173.94;5041092;28;45514;-73
2022/04/12 02:24:58;;;;;;;;;6.00;5.00;;;;;15.12;54.76;100187.75;5040172;28;45541;-74
2022/04/12 02:27:24;;;;;;;;;4.50;4.50;;;;;14.58;54.59;100095.94;5041490;28;45383;-70
2022/04/12 02:29:53;;;;;;;;;6.33;5.00;;;;;14.90;54.95;100158.41;5041907;28;46290;-75
2022/04/12 02:32:18;;;;;;;;;8.33;5.00;;;;;15.08;54.90;100195.75;5042907;28;45454;-74
2022/04/12 02:34:44;;;;;;;;;6.50;3.75;;;;;14.75;54.72;100146.47;5041999;28;45284;-73
2022/04/12 02:37:10;;;;;;;;;4.50;4.50;;;;;15.04;54.96;100190.59;5042834;28;45558;-73
2022/04/12 02:39:36;;;;;;;;;5.33;3.00;;;;;14.49;54.76;100101.41;5042419;28;45514;-74
2022/04/12 02:42:01;;;;;;;;;5.33;4.00;;;;;14.93;54.94;100179.44;5026301;28;45543;-74
2022/04/12 02:44:27;;;;;;;;;4.00;4.00;;;;;14.88;54.80;100177.78;5021458;28;45568;-75
2022/04/12 02:46:55;;;;;;;;;6.00;4.00;;;;;14.65;54.67;100126.50;5023227;28;45561;-75
2022/04/12 02:49:21;;;;;;;;;5.67;4.33;;;;;14.81;54.85;100170.03;5037126;28;47024;-76
2022/04/12 02:51:51;;;;;;;;;5.00;5.00;;;;;14.79;54.90;100163.06;5020521;28;45608;-72
2022/04/12 02:54:17;;;;;;;;;4.00;4.00;;;;;14.99;54.59;100210.03;5021661;28;45444;-73
2022/04/12 02:56:43;;;;;;;;;4.67;4.67;;;;;14.50;54.44;100103.13;5021345;28;45488;-73
2022/04/12 02:59:09;;;;;;;;;7.67;6.00;;;;;14.68;54.74;100133.47;5019739;28;45410;-72
2022/04/12 03:01:35;;;;;;;;;5.00;5.00;;;;;14.72;54.49;100148.31;5021283;28;45437;-74
2022/04/12 03:04:01;;;;;;;;;5.00;4.00;;;;;14.67;54.32;100137.88;5020092;28;45342;-71
2022/04/12 03:06:26;;;;;;;;;4.33;4.33;;;;;14.79;54.33;100153.41;5018744;28;45350;-69
2022/04/12 03:08:52;;;;;;;;;4.00;4.00;;;;;14.73;54.24;100147.41;5020184;28;46733;-68
2022/04/12 03:11:17;;;;;;;;;5.00;3.67;;;;;14.00;54.31;100024.44;5023382;28;45415;-72
2022/04/12 03:13:43;;;;;;;;;5.00;5.00;;;;;14.86;54.35;100158.53;5021786;28;45276;-70
2022/04/12 03:16:10;;;;;;;;;10.25;5.00;;;;;14.83;54.62;100159.47;5032782;28;45551;-71
2022/04/12 03:18:35;;;;;;;;;5.00;5.00;;;;;14.77;54.69;100147.28;5017672;28;45407;-74
2022/04/12 03:21:02;;;;;;;;;4.00;4.00;;;;;14.59;54.36;100113.47;5017812;28;45296;-73
2022/04/12 03:23:27;;;;;;;;;5.00;5.00;;;;;14.29;54.24;100068.50;5017210;28;45433;-72
2022/04/12 03:25:53;;;;;;;;;4.00;4.00;;;;;14.55;54.15;100117.09;5017642;28;45390;-74
2022/04/12 03:28:19;;;;;;;;;4.00;4.00;;;;;14.78;53.72;100162.22;5017815;28;45467;-73
2022/04/12 03:30:44;;;;;;;;;5.33;4.00;;;;;14.37;53.68;100097.28;5015607;28;45606;-71
2022/04/12 03:33:10;;;;;;;;;9.33;6.00;;;;;14.62;53.87;100142.41;5017402;28;45536;-74
2022/04/12 03:35:36;;;;;;;;;5.67;4.00;;;;;14.69;53.21;100154.53;5017436;28;45507;-72
2022/04/12 03:38:02;;;;;;;;;7.25;5.00;;;;;14.62;53.21;100140.63;5020823;28;45498;-74
2022/04/12 03:40:33;;;;;;;;;5.00;4.00;;;;;14.58;53.38;100146.00;5018354;28;45574;-74
2022/04/12 03:43:05;;;;;;;;;4.75;3.00;;;;;14.55;53.00;100149.59;5017905;28;45426;-73
2022/04/12 03:45:33;;;;;;;;;4.67;4.67;;;;;14.13;52.81;100099.59;5015927;28;45601;-74
2022/04/12 03:48:00;;;;;;;;;7.33;6.00;;;;;14.57;53.21;100176.78;5016728;28;45472;-75
2022/04/12 03:50:26;;;;;;;;;4.00;4.00;;;;;14.55;53.00;100183.84;5017203;28;45432;-72
2022/04/12 03:52:52;;;;;;;;;4.00;3.00;;;;;14.42;52.77;100169.16;5016622;28;45330;-75
2022/04/12 03:55:30;;;;;;;;;5.00;4.00;;;;;14.21;53.22;100128.38;5020318;28;45547;-74
2022/04/12 03:58:04;;;;;;;;;6.00;4.50;;;;;14.39;52.78;100172.75;5028124;28;46608;-72
2022/04/12 04:00:30;;;;;;;;;6.33;3.67;;;;;14.44;52.74;100183.19;5017062;28;45523;-73
2022/04/12 04:02:59;;;;;;;;;5.00;4.00;;;;;14.42;52.67;100174.44;5021255;28;45494;-74
2022/04/12 04:05:25;;;;;;;;;4.00;4.00;;;;;14.41;52.93;100172.72;5015918;28;45441;-73
2022/04/12 04:07:51;;;;;;;;;4.25;4.25;;;;;14.24;52.25;100154.66;5016772;28;46671;-72
2022/04/12 04:10:17;;;;;;;;;4.25;3.50;;;;;14.29;52.70;100163.31;5016395;28;45525;-75
2022/04/12 04:12:51;;;;;;;;;4.75;4.00;;;;;14.24;52.64;100146.75;5016276;28;45532;-74
2022/04/12 08:25:55;;;;;;;;;3.00;3.00;;;;;14.87;49.06;100344.81;5027644;27;2403540;-72
2022/04/12 08:28:21;;;;;;;;;2.33;2.00;;;;;15.04;47.95;100322.44;5094811;27;45346;-74
2022/04/12 08:30:47;;;;;;;;;3.00;3.00;;;;;15.46;48.06;100359.25;5094257;27;45229;-70
2022/04/12 08:33:13;;;;;;;;;3.00;3.00;;;;;15.68;47.19;100340.25;5094866;27;45491;-74
2022/04/12 08:35:39;;;;;;;;;3.67;3.67;;;;;15.96;46.78;100351.00;5094040;27;45506;-68
2022/04/12 08:38:05;;;;;;;;;2.00;2.00;;;;;16.19;46.54;100341.59;5094021;27;45364;-69
2022/04/12 08:40:31;;;;;;;;;3.00;2.00;;;;;16.12;45.97;100293.34;5093096;27;45803;-70
2022/04/12 08:42:58;;;;;;;;;3.00;2.33;;;;;16.58;45.30;100336.94;5094458;27;45559;-70
2022/04/12 08:45:25;;;;;;;;;4.00;2.00;;;;;16.74;45.35;100334.72;5093362;27;45546;-73
2022/04/12 08:47:52;;;;;;;;;1.33;0.67;;;;;16.91;44.96;100332.47;5077932;27;45530;-70
2022/04/12 08:50:19;;;;;;;;;3.00;2.33;;;;;17.05;44.94;100325.91;5081203;27;45528;-72
2022/04/12 08:52:46;;;;;;;;;5.33;2.33;;;;;17.24;44.38;100319.09;5093562;27;45389;-73
2022/04/12 08:55:12;;;;;;;;;3.00;1.33;;;;;17.50;44.01;100333.28;5092852;27;45730;-74
2022/04/12 08:57:38;;;;;;;;;3.00;3.00;;;;;17.63;43.46;100331.06;5093797;27;45345;-73
2022/04/12 09:00:06;;;;;;;;;6.00;4.67;;;;;17.74;43.19;100334.22;5094350;27;45464;-77
2022/04/12 09:02:32;;;;;;;;;2.00;2.00;;;;;17.66;44.22;100310.66;5094020;27;45336;-78
2022/04/12 09:04:58;;;;;;;;;3.00;3.00;;;;;17.84;43.23;100317.13;5092278;27;48066;-73
2022/04/12 09:07:28;;;;;;;;;2.67;2.67;;;;;17.99;42.49;100334.31;5094303;27;45522;-74
2022/04/12 09:10:07;;;;;;;;;4.33;3.00;;;;;18.10;42.69;100337.41;5094227;27;45534;-72
2022/04/12 09:12:34;;;;;;;;;1.33;1.33;;;;;18.17;42.77;100325.66;5093876;27;45437;-74
2022/04/12 09:15:00;;;;;;;;;4.00;3.67;;;;;18.31;41.88;100324.31;5093326;27;45472;-76
2022/04/12 09:17:35;;;;;;;;;5.00;4.00;;;;;18.36;41.84;100322.34;5093771;27;45422;-74
2022/04/12 09:20:03;;;;;;;;;2.00;2.00;;;;;18.44;41.42;100331.78;5093791;27;46031;-72
2022/04/12 09:22:30;;;;;;;;;2.00;2.00;;;;;18.46;41.69;100315.81;5094103;27;45413;-69
2022/04/12 09:24:59;;;;;;;;;1.00;0.67;;;;;18.60;41.30;100323.22;5092498;27;46827;-74
2022/04/12 09:27:31;;;;;;;;;4.00;2.00;;;;;18.74;41.17;100328.00;5093482;27;45460;-73
2022/04/12 09:30:00;;;;;;;;;1.00;1.00;;;;;18.84;40.55;100332.97;5093665;27;45506;-72
2022/04/12 09:32:28;;;;;;;;;1.67;1.33;;;;;18.78;39.95;100304.00;5093843;27;45532;-74
2022/04/12 09:35:00;;;;;;;;;2.67;2.00;;;;;18.87;40.26;100304.56;5093153;27;45452;-75
2022/04/12 09:37:33;;;;;;;;;2.33;2.00;;;;;18.99;39.80;100318.22;5078423;28;45479;-72
2022/04/12 09:39:59;;;;;;;;;2.00;2.00;;;;;19.09;39.66;100318.72;5080033;27;45465;-73
2022/04/12 09:42:49;;;;;;;;;4.00;2.00;;;;;19.16;39.64;100314.88;5080157;27;45455;-72
2022/04/12 09:45:18;;;;;;;;;5.67;2.67;;;;;19.11;39.81;100289.47;5079731;27;46247;-73
2022/04/12 09:47:45;;;;;;;;;2.00;2.00;;;;;19.34;39.46;100305.31;5079440;27;45417;-72
2022/04/12 09:50:11;;;;;;;;;3.33;3.00;;;;;19.36;39.36;100295.50;5079802;27;45390;-73
2022/04/12 09:52:38;;;;;;;;;3.00;1.00;;;;;19.41;39.21;100303.25;5079997;27;45359;-72
2022/04/12 09:55:08;;;;;;;;;5.67;3.00;;;;;19.45;39.33;100296.91;5079142;28;45450;-72
2022/04/12 09:57:38;;;;;;;;;4.50;4.50;;;;;19.51;39.11;100293.13;5078497;27;45414;-73
2022/04/12 10:00:04;;;;;;;;;3.00;3.00;;;;;19.56;38.94;100291.16;5077979;27;45340;-75
2022/04/12 10:02:33;;;;;;;;;2.00;2.00;;;;;19.66;39.13;100303.97;5079576;27;45333;-72
2022/04/12 10:05:03;;;;;;;;;3.33;2.33;;;;;19.61;38.85;100281.19;5079188;27;45448;-75
2022/04/12 10:07:32;;;;;;;;;3.00;3.00;;;;;19.85;38.63;100303.22;5079307;27;45401;-73
2022/04/12 10:09:58;;;;;;;;;6.33;2.00;;;;;19.95;38.78;100293.91;5079712;27;45398;-72
2022/04/12 10:12:31;;;;;;;;;3.67;2.00;;;;;20.04;37.99;100301.47;5080122;27;45449;-74
2022/04/12 10:14:57;;;;;;;;;4.00;2.00;;;;;19.99;38.13;100290.19;5079705;28;45392;-74
2022/04/12 10:17:23;;;;;;;;;5.67;4.00;;;;;20.03;38.41;100289.13;5079035;27;45525;-75
2022/04/12 10:19:49;;;;;;;;;4.33;4.33;;;;;19.96;38.05;100245.13;5079464;27;45362;-74
2022/04/12 10:22:15;;;;;;;;;3.00;1.33;;;;;20.18;38.15;100273.41;5079416;27;45239;-73
2022/04/12 10:24:40;;;;;;;;;3.00;2.00;;;;;20.19;38.25;100256.50;5079687;27;45487;-73
2022/04/12 10:27:10;;;;;;;;;2.00;2.00;;;;;20.17;38.14;100243.31;5079470;28;45290;-75
2022/04/12 10:29:36;;;;;;;;;2.00;2.00;;;;;20.39;38.41;100261.78;5080712;27;45337;-70
2022/04/12 10:32:04;;;;;;;;;2.00;2.00;;;;;20.44;38.17;100258.91;5080244;28;45421;-72
2022/04/12 10:34:34;;;;;;;;;4.00;2.00;;;;;20.42;38.18;100264.31;5078697;27;46846;-73
2022/04/12 10:37:10;;;;;;;;;4.33;3.33;;;;;20.32;37.92;100252.38;5080469;27;45325;-74
2022/04/12 10:39:53;;;;;;;;;2.00;2.00;;;;;20.20;37.92;100242.31;5079095;27;45478;-72
2022/04/12 10:42:23;;;;;;;;;4.67;2.33;;;;;20.08;37.99;100246.38;5079634;27;45403;-72
2022/04/12 10:44:55;;;;;;;;;4.00;3.00;;;;;20.01;38.37;100263.53;5078994;27;46420;-75
2022/04/12 10:47:31;;;;;;;;;2.00;2.00;;;;;20.09;38.85;100286.16;5080123;27;45433;-73
2022/04/12 10:50:07;;;;;;;;;5.00;2.67;;;;;20.17;38.61;100290.28;5072212;27;45559;-75
2022/04/12 10:52:42;;;;;;;;;4.67;3.33;;;;;20.21;38.55;100291.88;5071176;28;45673;-75
2022/04/12 10:55:18;;;;;;;;;2.33;2.33;;;;;20.30;38.21;100286.16;5061610;28;45228;-72
2022/04/12 10:57:44;;;;;;;;;3.33;3.00;;;;;20.42;38.14;100292.72;5072946;28;45445;-73
2022/04/12 11:00:13;;;;;;;;;2.00;2.00;;;;;20.40;38.36;100278.59;5081593;27;45351;-71
2022/04/12 11:02:59;;;;;;;;;3.00;3.00;;;;;20.48;38.33;100293.28;5081149;28;45442;-70
2022/04/12 11:05:37;;;;;;;;;2.67;2.67;;;;;20.57;38.05;100312.44;5080352;27;45418;-71
2022/04/12 11:08:35;;;;;;;;;2.00;2.00;;;;;20.61;38.24;100309.56;5083856;27;45445;-70
2022/04/12 11:11:01;;;;;;;;;2.00;2.00;;;;;20.73;38.28;100316.13;5056946;28;45319;-72
2022/04/12 11:13:31;;;;;;;;;3.00;3.00;;;;;20.61;37.70;100306.91;5063373;28;45346;-74
2022/04/12 11:16:00;;;;;;;;;2.00;2.00;;;;;20.72;37.92;100311.75;5063847;28;45428;-75
2022/04/12 11:18:54;;;;;;;;;4.33;3.33;;;;;20.79;37.82;100309.66;5063023;28;45305;-72
2022/04/12 11:21:25;;;;;;;;;3.00;2.00;;;;;20.86;38.10;100317.28;5061687;28;45786;-73
2022/04/12 11:24:01;;;;;;;;;4.00;2.00;;;;;20.85;38.11;100296.03;5060815;28;45578;-72
2022/04/12 11:26:35;;;;;;;;;2.67;2.33;;;;;21.14;37.76;100314.16;5062078;28;46413;-75
2022/04/12 11:29:01;;;;;;;;;2.00;2.00;;;;;20.74;37.38;100256.66;5062208;28;45248;-71
2022/04/12 11:31:27;;;;;;;;;2.33;2.33;;;;;21.07;37.69;100319.84;5062886;28;45374;-72
2022/04/12 11:33:53;;;;;;;;;4.00;2.33;;;;;21.10;37.85;100317.91;5061003;28;45219;-72
2022/04/12 11:36:20;;;;;;;;;4.00;3.00;;;;;21.22;37.62;100307.59;5058342;28;45402;-69
2022/04/12 11:38:47;;;;;;;;;4.67;2.00;;;;;21.14;37.11;100260.03;5059168;28;45307;-72
2022/04/12 11:41:14;;;;;;;;;5.00;3.67;;;;;21.49;36.98;100292.06;5058947;28;45367;-73
2022/04/12 11:43:42;;;;;;;;;3.00;3.00;;;;;21.41;36.50;100265.81;5081961;27;45456;-72
2022/04/12 11:46:16;;;;;;;;;7.00;2.33;;;;;21.68;36.64;100295.50;5097426;27;46185;-71
2022/04/12 11:48:47;;;;;;;;;4.00;2.00;;;;;21.59;36.34;100258.66;5098421;27;45492;-71
2022/04/12 11:51:22;;;;;;;;;1.67;1.67;;;;;21.79;36.09;100301.16;5084952;27;45489;-74
2022/04/12 11:53:54;;;;;;;;;3.33;2.00;;;;;21.79;36.37;100313.63;5057550;28;45616;-73
2022/04/12 11:56:21;;;;;;;;;3.33;2.00;;;;;21.57;36.27;100261.44;5057671;28;45245;-69
2022/04/12 11:58:47;;;;;;;;;3.00;3.00;;;;;21.83;35.85;100301.88;5057122;28;45445;-68
2022/04/12 12:01:13;;;;;;;;;2.67;2.33;;;;;21.83;35.81;100283.22;5057155;28;45384;-68
2022/04/12 12:03:46;;;;;;;;;2.33;1.67;;;;;21.88;35.70;100285.63;5055536;28;45409;-68
2022/04/12 12:06:11;;;;;;;;;5.67;3.00;;;;;22.16;35.92;100317.94;5056951;28;45602;-69
2022/04/12 12:08:37;;;;;;;;;3.00;2.00;;;;;22.03;35.73;100282.16;5057576;28;45420;-69
2022/04/12 12:11:10;;;;;;;;;5.33;2.33;;;;;22.12;35.69;100287.00;5057356;28;45859;-69
2022/04/12 12:13:36;;;;;;;;;4.00;2.00;;;;;22.35;35.70;100311.63;5057099;28;45916;-70
2022/04/12 12:16:01;;;;;;;;;2.33;2.33;;;;;22.37;35.58;100310.59;5056925;28;45348;-69
2022/04/12 12:18:28;;;;;;;;;3.67;2.00;;;;;22.41;35.48;100320.16;5057123;28;45427;-68
2022/04/12 12:20:55;;;;;;;;;4.67;2.00;;;;;22.15;35.49;100259.31;5057936;27;45420;-72
2022/04/12 12:23:20;;;;;;;;;3.33;2.67;;;;;22.46;35.19;100297.72;5058536;28;45397;-73
2022/04/12 12:25:46;;;;;;;;;2.33;2.00;;;;;22.69;35.33;100315.16;5062599;27;45466;-74
2022/04/12 12:28:17;;;;;;;;;2.00;2.00;;;;;22.85;35.08;100329.34;5077988;27;45662;-74
2022/04/12 12:30:45;;;;;;;;;4.33;3.00;;;;;22.99;34.93;100299.22;5075374;27;45412;-73
2022/04/12 12:33:11;;;;;;;;;3.33;3.00;;;;;22.71;33.78;100271.41;5077573;27;45587;-74
2022/04/12 12:35:41;;;;;;;;;3.67;3.00;;;;;22.76;34.28;100289.84;5059508;28;45562;-75
2022/04/12 12:38:11;;;;;;;;;2.00;2.00;;;;;22.68;34.44;100290.22;5061870;28;45500;-75
2022/04/12 12:40:38;;;;;;;;;2.00;2.00;;;;;22.75;34.55;100329.00;5057036;28;45459;-75
2022/04/12 12:43:09;;;;;;;;;4.33;2.33;;;;;22.68;34.60;100340.09;5057070;28;45220;-75
2022/04/12 12:45:45;;;;;;;;;2.67;2.67;;;;;22.53;34.95;100312.44;5057013;28;45424;-73
2022/04/12 12:48:16;;;;;;;;;3.67;3.00;;;;;22.48;34.68;100320.69;5068557;28;45406;-67
2022/04/12 12:50:43;;;;;;;;;4.00;2.00;;;;;22.46;34.67;100324.41;5073213;27;45468;-72
2022/04/12 12:53:11;;;;;;;;;4.00;2.00;;;;;22.51;34.99;100341.03;5071941;28;45493;-73
2022/04/12 12:55:44;;;;;;;;;2.33;2.33;;;;;22.26;34.87;100310.31;5071773;27;45531;-72
2022/04/12 12:58:32;;;;;;;;;2.00;2.00;;;;;22.40;34.93;100349.59;5073839;28;45480;-70
2022/04/12 13:01:07;;;;;;;;;1.00;1.00;;;;;22.50;35.00;100342.84;5075748;27;45445;-70
2022/04/12 13:03:39;;;;;;;;;2.33;2.00;;;;;22.52;34.83;100343.63;5081559;27;45271;-70
2022/04/12 13:06:07;;;;;;;;;5.00;4.00;;;;;22.28;34.51;100313.78;5070332;27;46161;-74
2022/04/12 13:08:33;;;;;;;;;3.00;3.00;;;;;22.46;34.56;100346.59;5068905;28;45434;-73
2022/04/12 13:11:00;;;;;;;;;1.00;1.00;;;;;22.49;34.68;100354.44;5066550;27;45345;-77
2022/04/12 13:13:26;;;;;;;;;3.33;2.00;;;;;22.56;34.62;100363.84;5078310;27;45447;-73
2022/04/12 13:15:52;;;;;;;;;2.00;1.00;;;;;22.57;34.39;100356.72;5076898;27;45527;-68
2022/04/12 13:18:18;;;;;;;;;1.00;1.00;;;;;22.43;34.41;100331.63;5077413;28;44768;-72
2022/04/12 13:20:44;;;;;;;;;3.00;3.00;;;;;22.43;34.42;100328.94;5077046;27;45769;-74
2022/04/12 13:23:09;;;;;;;;;2.33;2.00;;;;;22.45;34.14;100344.88;5075959;27;45390;-70
2022/04/12 13:25:35;;;;;;;;;3.67;1.00;;;;;22.48;34.40;100354.53;5076484;27;46451;-73
2022/04/12 13:28:01;;;;;;;;;3.67;2.67;;;;;22.43;34.44;100346.78;5075666;28;45577;-75
2022/04/12 13:30:27;;;;;;;;;1.00;1.00;;;;;22.57;34.05;100365.56;5074320;27;45422;-74
2022/04/12 13:32:53;;;;;;;;;2.00;2.00;;;;;22.47;34.21;100359.03;5073524;28;45574;-70
2022/04/12 13:35:20;;;;;;;;;3.00;3.00;;;;;22.53;34.11;100358.66;5077804;27;46743;-76
2022/04/12 13:37:46;;;;;;;;;2.00;1.00;;;;;22.58;34.47;100353.09;5073620;27;45440;-76
2022/04/12 13:40:30;;;;;;;;;2.00;1.67;;;;;22.63;34.15;100346.53;5076526;28;45462;-71
2022/04/12 13:43:04;;;;;;;;;1.00;1.00;;;;;22.76;34.17;100338.75;5078477;28;45636;-71
2022/04/12 13:45:29;;;;;;;;;5.00;2.00;;;;;22.87;34.45;100348.81;5072108;28;47664;-74
2022/04/12 13:47:55;;;;;;;;;3.00;2.00;;;;;22.98;33.91;100359.81;5077255;28;45241;-74
2022/04/12 13:50:20;;;;;;;;;4.67;2.00;;;;;22.94;34.24;100328.84;5069775;27;45316;-74
2022/04/12 13:52:46;;;;;;;;;2.00;2.00;;;;;23.19;34.00;100338.19;5072478;28;45410;-75
2022/04/12 13:55:12;;;;;;;;;1.67;1.67;;;;;23.28;33.95;100333.19;5071254;28;46119;-76
2022/04/12 13:57:38;;;;;;;;;2.33;2.33;;;;;23.38;33.43;100348.69;5072991;27;45505;-73
2022/04/12 14:00:05;;;;;;;;;3.00;2.00;;;;;23.40;33.23;100352.13;5071422;28;45583;-73
2022/04/12 14:02:31;;;;;;;;;3.00;2.00;;;;;23.36;33.38;100337.22;5072010;27;45390;-73
2022/04/12 14:04:56;;;;;;;;;2.00;2.00;;;;;23.47;33.23;100337.47;5075595;28;46041;-74
2022/04/12 14:07:22;;;;;;;;;4.00;2.00;;;;;23.54;33.53;100344.19;5072271;28;45334;-72
2022/04/12 14:09:48;;;;;;;;;1.00;1.00;;;;;23.53;33.32;100347.78;5078468;27;45425;-70
2022/04/12 14:12:13;;;;;;;;;2.00;2.00;;;;;23.55;33.68;100356.59;5077410;27;45333;-75
2022/04/12 14:14:39;;;;;;;;;2.00;2.00;;;;;23.51;33.51;100344.34;5077712;27;45443;-73
2022/04/12 14:17:05;;;;;;;;;3.33;2.00;;;;;23.36;33.67;100330.06;5078430;27;45441;-75
2022/04/12 14:19:30;;;;;;;;;4.00;2.00;;;;;23.50;33.23;100358.66;5081228;27;45348;-72
2022/04/12 14:21:56;;;;;;;;;2.67;2.00;;;;;23.45;33.42;100368.75;5071964;28;45500;-69
2022/04/12 14:24:22;;;;;;;;;2.00;1.33;;;;;23.14;33.70;100325.09;5079198;28;45708;-67
2022/04/12 14:26:48;;;;;;;;;2.67;2.00;;;;;23.41;33.56;100345.81;5070672;27;45356;-73
2022/04/12 14:29:14;;;;;;;;;3.00;2.33;;;;;23.46;33.85;100354.44;5075262;28;45971;-72
2022/04/12 14:31:42;;;;;;;;;2.00;2.00;;;;;23.47;34.02;100350.84;5077990;27;45774;-72
2022/04/12 14:34:08;;;;;;;;;2.33;1.00;;;;;23.27;33.91;100303.88;5074331;28;46684;-72
2022/04/12 14:36:35;;;;;;;;;0.33;0.00;;;;;23.44;34.04;100333.16;5075020;27;45573;-76
2022/04/12 14:39:00;;;;;;;;;2.00;2.00;;;;;23.43;33.58;100338.59;5071247;28;45239;-69
2022/04/12 14:41:26;;;;;;;;;4.67;1.33;;;;;23.16;33.77;100276.91;5073822;27;45523;-74
2022/04/12 14:43:52;;;;;;;;;2.33;2.00;;;;;23.26;33.96;100297.66;5076033;28;46566;-72
2022/04/12 14:46:18;;;;;;;;;4.00;1.00;;;;;23.47;33.64;100341.00;5073816;27;45534;-72
2022/04/12 14:48:44;;;;;;;;;3.33;2.00;;;;;23.22;33.77;100304.13;5079340;27;45621;-73
2022/04/12 14:51:09;;;;;;;;;1.67;1.33;;;;;23.32;33.69;100312.47;5079676;27;45519;-72
2022/04/12 14:53:35;;;;;;;;;4.00;2.00;;;;;23.49;33.54;100359.59;5077184;27;45410;-71
2022/04/12 14:56:01;;;;;;;;;2.33;2.00;;;;;23.32;34.16;100339.19;5070407;28;45489;-75
2022/04/12 14:58:30;;;;;;;;;1.33;1.33;;;;;23.13;34.24;100307.31;5081631;27;45456;-68
2022/04/12 15:01:04;;;;;;;;;3.00;2.00;;;;;23.37;34.80;100352.28;5081515;27;45431;-74
2022/04/12 15:03:30;;;;;;;;;3.00;3.00;;;;;23.39;34.71;100371.78;5061147;28;45373;-69
2022/04/12 15:05:55;;;;;;;;;2.33;2.33;;;;;23.27;33.93;100376.84;5067900;27;45541;-70
2022/04/12 15:08:21;;;;;;;;;3.00;2.33;;;;;22.82;33.93;100310.84;5069478;27;45533;-70
2022/04/12 15:10:47;;;;;;;;;3.00;3.00;;;;;23.02;34.29;100349.81;5060951;28;45271;-70
2022/04/12 15:13:13;;;;;;;;;2.00;1.67;;;;;22.73;34.06;100319.34;5062805;28;45443;-69
2022/04/12 15:15:44;;;;;;;;;3.33;2.33;;;;;22.52;34.32;100311.59;5056371;28;45603;-73
2022/04/12 15:18:10;;;;;;;;;1.00;1.00;;;;;22.92;34.47;100391.28;5072682;27;45480;-68
2022/04/12 15:20:35;;;;;;;;;2.00;2.00;;;;;22.89;35.60;100396.81;5074915;27;45460;-72
2022/04/12 15:23:01;;;;;;;;;5.33;3.00;;;;;22.54;35.29;100336.41;5062733;27;46158;-69
2022/04/12 15:25:27;;;;;;;;;3.67;2.00;;;;;22.85;35.36;100402.31;5067671;27;45424;-68
2022/04/12 15:27:52;;;;;;;;;3.67;3.00;;;;;22.73;35.41;100394.97;5066128;27;45556;-68
2022/04/12 15:30:18;;;;;;;;;2.33;2.33;;;;;22.68;35.64;100391.66;5059667;28;45496;-68
2022/04/12 15:32:47;;;;;;;;;2.00;2.00;;;;;22.61;35.87;100384.94;5058291;28;45889;-68
2022/04/12 15:35:13;;;;;;;;;4.00;2.67;;;;;21.99;36.34;100294.78;5055773;27;45460;-67
2022/04/12 15:37:46;;;;;;;;;3.00;2.00;;;;;21.98;36.41;100293.06;5063482;28;45352;-72
2022/04/12 15:40:12;;;;;;;;;3.33;2.00;;;;;22.09;36.67;100313.84;5059791;27;45465;-72